Charter Quote
Worldwide +1-877-727-2538 Call
Select Language Lang
SAFETY RELIABILITY EXPERIENCE

Private Jet Charter Services - Zhaotong Airport (ZPZT)

Paramount Business Jets offers private jet charter flights and luxury airliner charters to and from Zhaotong Airport.

AIRPORT INFORMATION
ICAOZPZT
LOCATIONZhaotong, China
FACILITY TYPEAIRPORT

At Paramount Business Jets you can hire chartered private jets to and from Zhaotong Airport with as little as 4 hours of notice. All flights booked via Paramount Business Jets are operated by certified direct air carriers that meet and exceed the FAA part 135 and 121 protocol or a foreign equivalent safety authority. Furthermore, Paramount Business Jets subscribes to ARGUS for their third party safety checks of operators, aircraft, and crews prior each and every flight to and from Zhaotong Airport and worldwide.

  • Quote a trip using Zhaotong Airport or call us 24/7 - 365 days a year at +1-877-727-2538.
Questions? Call +1-877-727-2538

METAR Weather Data at Zhaotong Airport, ZPZT

STATIONZPZT
OBSERVEDWed Jan 8, 11:00 UTC
NOWMon Oct 21, 21:07 UTC
AGE50698:07 hr ago
WINDN at 7 mph
METARZPZT 081100Z AUTO 35003MPS /// /// M01/M04 Q1023 NOSIG

Call us on +1-877-727-2538 (24 Hours) to Hire a Private Jet or Get a Quick Quote.

Find Airports Near any Location

Processing
...